sensor_id;sensor_type;location;lat;lon;timestamp;P1;durP1;ratioP1;P2;durP2;ratioP2
71320;SDS011;59118;54.322;18.576;2022-11-13T00:03:45;16.08;;;5.00;;
71320;SDS011;59118;54.322;18.576;2022-11-13T00:06:12;14.40;;;4.50;;
71320;SDS011;59118;54.322;18.576;2022-11-13T00:08:40;12.52;;;4.53;;
71320;SDS011;59118;54.322;18.576;2022-11-13T00:11:08;12.48;;;4.60;;
71320;SDS011;59118;54.322;18.576;2022-11-13T00:13:40;14.02;;;4.50;;
71320;SDS011;59118;54.322;18.576;2022-11-13T00:16:11;13.70;;;4.43;;
71320;SDS011;59118;54.322;18.576;2022-11-13T00:18:40;12.97;;;4.27;;
71320;SDS011;59118;54.322;18.576;2022-11-13T00:21:16;12.70;;;4.55;;
71320;SDS011;59118;54.322;18.576;2022-11-13T00:23:45;12.35;;;4.15;;
71320;SDS011;59118;54.322;18.576;2022-11-13T00:26:15;14.65;;;4.60;;
71320;SDS011;59118;54.322;18.576;2022-11-13T00:28:56;14.95;;;5.03;;
71320;SDS011;59118;54.322;18.576;2022-11-13T00:31:46;15.30;;;4.63;;
71320;SDS011;59118;54.322;18.576;2022-11-13T00:34:14;14.80;;;4.90;;
71320;SDS011;59118;54.322;18.576;2022-11-13T00:37:01;11.27;;;4.75;;
71320;SDS011;59118;54.322;18.576;2022-11-13T00:39:27;13.95;;;4.75;;
71320;SDS011;59118;54.322;18.576;2022-11-13T00:41:54;12.18;;;4.60;;
71320;SDS011;59118;54.322;18.576;2022-11-13T00:44:21;11.20;;;4.33;;
71320;SDS011;59118;54.322;18.576;2022-11-13T00:46:53;16.23;;;4.65;;
71320;SDS011;59118;54.322;18.576;2022-11-13T00:49:22;10.52;;;4.10;;
71320;SDS011;59118;54.322;18.576;2022-11-13T00:51:49;13.75;;;4.53;;
71320;SDS011;59118;54.322;18.576;2022-11-13T00:54:15;11.60;;;4.30;;
71320;SDS011;59118;54.322;18.576;2022-11-13T00:56:42;14.60;;;4.50;;
71320;SDS011;59118;54.322;18.576;2022-11-13T00:59:08;15.98;;;4.75;;
71320;SDS011;59118;54.322;18.576;2022-11-13T01:01:35;12.80;;;3.97;;
71320;SDS011;59118;54.322;18.576;2022-11-13T01:04:02;14.63;;;4.85;;
71320;SDS011;59118;54.322;18.576;2022-11-13T01:06:28;13.20;;;4.82;;
71320;SDS011;59118;54.322;18.576;2022-11-13T01:08:56;10.93;;;4.50;;
71320;SDS011;59118;54.322;18.576;2022-11-13T01:11:25;11.27;;;4.25;;
71320;SDS011;59118;54.322;18.576;2022-11-13T01:13:53;12.52;;;4.88;;
71320;SDS011;59118;54.322;18.576;2022-11-13T01:16:21;13.40;;;4.22;;
71320;SDS011;59118;54.322;18.576;2022-11-13T01:18:49;13.80;;;4.85;;
71320;SDS011;59118;54.322;18.576;2022-11-13T01:21:17;14.37;;;4.57;;
71320;SDS011;59118;54.322;18.576;2022-11-13T01:23:45;14.73;;;4.60;;
71320;SDS011;59118;54.322;18.576;2022-11-13T01:26:15;13.18;;;4.43;;
71320;SDS011;59118;54.322;18.576;2022-11-13T01:28:45;16.05;;;4.88;;
71320;SDS011;59118;54.322;18.576;2022-11-13T01:31:15;11.82;;;4.63;;
71320;SDS011;59118;54.322;18.576;2022-11-13T01:33:44;13.13;;;4.57;;
71320;SDS011;59118;54.322;18.576;2022-11-13T01:36:12;14.20;;;5.38;;
71320;SDS011;59118;54.322;18.576;2022-11-13T01:38:43;13.63;;;4.95;;
71320;SDS011;59118;54.322;18.576;2022-11-13T01:41:14;11.70;;;4.72;;
71320;SDS011;59118;54.322;18.576;2022-11-13T01:43:48;13.27;;;4.63;;
71320;SDS011;59118;54.322;18.576;2022-11-13T01:46:25;12.20;;;4.53;;
71320;SDS011;59118;54.322;18.576;2022-11-13T01:49:03;12.52;;;3.92;;
71320;SDS011;59118;54.322;18.576;2022-11-13T01:51:39;12.40;;;4.25;;
71320;SDS011;59118;54.322;18.576;2022-11-13T01:54:28;12.27;;;4.07;;
71320;SDS011;59118;54.322;18.576;2022-11-13T01:57:02;14.27;;;4.82;;
71320;SDS011;59118;54.322;18.576;2022-11-13T01:59:31;11.33;;;4.23;;
71320;SDS011;59118;54.322;18.576;2022-11-13T02:02:01;12.82;;;4.70;;
71320;SDS011;59118;54.322;18.576;2022-11-13T02:04:28;15.38;;;4.38;;
71320;SDS011;59118;54.322;18.576;2022-11-13T02:06:58;12.05;;;4.43;;
71320;SDS011;59118;54.322;18.576;2022-11-13T02:09:28;12.32;;;4.32;;
71320;SDS011;59118;54.322;18.576;2022-11-13T02:11:56;12.90;;;4.17;;
71320;SDS011;59118;54.322;18.576;2022-11-13T02:14:26;12.05;;;4.43;;
71320;SDS011;59118;54.322;18.576;2022-11-13T02:16:55;14.00;;;4.57;;
71320;SDS011;59118;54.322;18.576;2022-11-13T02:19:33;12.43;;;4.25;;
71320;SDS011;59118;54.322;18.576;2022-11-13T02:24:46;14.33;;;4.50;;
71320;SDS011;59118;54.322;18.576;2022-11-13T02:27:25;14.07;;;4.45;;
71320;SDS011;59118;54.322;18.576;2022-11-13T02:29:56;11.82;;;3.88;;
71320;SDS011;59118;54.322;18.576;2022-11-13T02:32:22;15.77;;;4.32;;
71320;SDS011;59118;54.322;18.576;2022-11-13T02:34:49;12.40;;;4.63;;
71320;SDS011;59118;54.322;18.576;2022-11-13T02:37:17;12.50;;;4.80;;
71320;SDS011;59118;54.322;18.576;2022-11-13T02:39:44;14.00;;;4.60;;
71320;SDS011;59118;54.322;18.576;2022-11-13T02:42:13;13.85;;;4.60;;
71320;SDS011;59118;54.322;18.576;2022-11-13T02:44:40;17.92;;;4.85;;
71320;SDS011;59118;54.322;18.576;2022-11-13T02:47:14;14.95;;;4.50;;
71320;SDS011;59118;54.322;18.576;2022-11-13T02:49:40;12.97;;;4.27;;
71320;SDS011;59118;54.322;18.576;2022-11-13T02:52:09;12.13;;;4.20;;
71320;SDS011;59118;54.322;18.576;2022-11-13T02:54:35;14.10;;;4.03;;
71320;SDS011;59118;54.322;18.576;2022-11-13T02:57:02;14.30;;;5.05;;
71320;SDS011;59118;54.322;18.576;2022-11-13T02:59:28;10.95;;;4.13;;
71320;SDS011;59118;54.322;18.576;2022-11-13T03:01:55;9.87;;;3.73;;
71320;SDS011;59118;54.322;18.576;2022-11-13T03:04:22;16.10;;;4.30;;
71320;SDS011;59118;54.322;18.576;2022-11-13T03:06:49;12.32;;;4.28;;
71320;SDS011;59118;54.322;18.576;2022-11-13T03:09:15;11.48;;;4.68;;
71320;SDS011;59118;54.322;18.576;2022-11-13T03:11:42;13.50;;;4.70;;
71320;SDS011;59118;54.322;18.576;2022-11-13T03:14:09;13.23;;;5.43;;
71320;SDS011;59118;54.322;18.576;2022-11-13T03:16:36;13.73;;;4.90;;
71320;SDS011;59118;54.322;18.576;2022-11-13T03:19:02;12.07;;;4.53;;
71320;SDS011;59118;54.322;18.576;2022-11-13T03:21:30;13.95;;;4.85;;
71320;SDS011;59118;54.322;18.576;2022-11-13T03:23:57;13.68;;;4.85;;
71320;SDS011;59118;54.322;18.576;2022-11-13T03:26:24;11.10;;;4.40;;
71320;SDS011;59118;54.322;18.576;2022-11-13T03:28:53;12.02;;;4.35;;
71320;SDS011;59118;54.322;18.576;2022-11-13T03:31:20;12.95;;;5.00;;
71320;SDS011;59118;54.322;18.576;2022-11-13T03:33:47;13.30;;;4.93;;
71320;SDS011;59118;54.322;18.576;2022-11-13T03:36:14;11.55;;;4.80;;
71320;SDS011;59118;54.322;18.576;2022-11-13T03:38:40;12.60;;;4.60;;
71320;SDS011;59118;54.322;18.576;2022-11-13T03:41:07;13.30;;;4.82;;
71320;SDS011;59118;54.322;18.576;2022-11-13T03:43:33;14.02;;;4.80;;
71320;SDS011;59118;54.322;18.576;2022-11-13T03:46:00;12.35;;;4.90;;
71320;SDS011;59118;54.322;18.576;2022-11-13T03:48:26;19.30;;;7.72;;
71320;SDS011;59118;54.322;18.576;2022-11-13T03:50:54;14.97;;;7.03;;
71320;SDS011;59118;54.322;18.576;2022-11-13T03:53:21;12.35;;;6.18;;
71320;SDS011;59118;54.322;18.576;2022-11-13T03:55:47;12.77;;;4.55;;
71320;SDS011;59118;54.322;18.576;2022-11-13T03:58:14;13.07;;;4.88;;
71320;SDS011;59118;54.322;18.576;2022-11-13T04:00:41;15.32;;;4.55;;
71320;SDS011;59118;54.322;18.576;2022-11-13T04:03:08;19.10;;;4.67;;
71320;SDS011;59118;54.322;18.576;2022-11-13T04:05:35;14.02;;;4.30;;
71320;SDS011;59118;54.322;18.576;2022-11-13T04:08:01;12.70;;;4.88;;
71320;SDS011;59118;54.322;18.576;2022-11-13T04:10:28;11.48;;;4.50;;
71320;SDS011;59118;54.322;18.576;2022-11-13T04:12:55;15.00;;;5.40;;
71320;SDS011;59118;54.322;18.576;2022-11-13T04:15:24;13.57;;;5.13;;
71320;SDS011;59118;54.322;18.576;2022-11-13T04:17:50;10.75;;;4.68;;
71320;SDS011;59118;54.322;18.576;2022-11-13T04:20:17;12.10;;;4.85;;
71320;SDS011;59118;54.322;18.576;2022-11-13T04:22:43;13.45;;;4.75;;
71320;SDS011;59118;54.322;18.576;2022-11-13T04:25:10;13.18;;;5.82;;
71320;SDS011;59118;54.322;18.576;2022-11-13T04:27:38;10.20;;;4.87;;
71320;SDS011;59118;54.322;18.576;2022-11-13T04:30:05;12.48;;;4.68;;
71320;SDS011;59118;54.322;18.576;2022-11-13T04:32:32;13.00;;;4.95;;
71320;SDS011;59118;54.322;18.576;2022-11-13T04:34:59;13.82;;;4.90;;
71320;SDS011;59118;54.322;18.576;2022-11-13T04:37:25;14.68;;;5.13;;
71320;SDS011;59118;54.322;18.576;2022-11-13T04:39:52;12.37;;;4.50;;
71320;SDS011;59118;54.322;18.576;2022-11-13T04:42:18;13.25;;;4.60;;
71320;SDS011;59118;54.322;18.576;2022-11-13T04:45:04;14.23;;;5.25;;
71320;SDS011;59118;54.322;18.576;2022-11-13T04:47:31;16.23;;;5.15;;
71320;SDS011;59118;54.322;18.576;2022-11-13T04:49:57;12.07;;;4.93;;
71320;SDS011;59118;54.322;18.576;2022-11-13T04:52:24;13.23;;;5.10;;
71320;SDS011;59118;54.322;18.576;2022-11-13T04:54:51;15.73;;;5.18;;
71320;SDS011;59118;54.322;18.576;2022-11-13T04:57:17;13.00;;;5.22;;
71320;SDS011;59118;54.322;18.576;2022-11-13T04:59:44;11.77;;;4.88;;
71320;SDS011;59118;54.322;18.576;2022-11-13T05:02:10;13.32;;;4.75;;
71320;SDS011;59118;54.322;18.576;2022-11-13T05:04:37;15.97;;;5.57;;
71320;SDS011;59118;54.322;18.576;2022-11-13T05:07:04;13.55;;;5.07;;
71320;SDS011;59118;54.322;18.576;2022-11-13T05:09:30;14.90;;;4.80;;
71320;SDS011;59118;54.322;18.576;2022-11-13T05:11:57;13.10;;;4.35;;
71320;SDS011;59118;54.322;18.576;2022-11-13T05:14:23;12.50;;;5.22;;
71320;SDS011;59118;54.322;18.576;2022-11-13T05:16:50;15.63;;;4.47;;
71320;SDS011;59118;54.322;18.576;2022-11-13T05:19:16;11.05;;;4.55;;
71320;SDS011;59118;54.322;18.576;2022-11-13T05:21:43;13.18;;;5.03;;
71320;SDS011;59118;54.322;18.576;2022-11-13T05:24:13;12.13;;;4.60;;
71320;SDS011;59118;54.322;18.576;2022-11-13T05:26:42;10.82;;;4.60;;
71320;SDS011;59118;54.322;18.576;2022-11-13T05:29:08;9.53;;;4.23;;
71320;SDS011;59118;54.322;18.576;2022-11-13T05:31:35;12.88;;;4.90;;
71320;SDS011;59118;54.322;18.576;2022-11-13T05:34:02;9.82;;;4.35;;
71320;SDS011;59118;54.322;18.576;2022-11-13T05:36:32;10.32;;;4.55;;
71320;SDS011;59118;54.322;18.576;2022-11-13T05:39:03;12.02;;;4.60;;
71320;SDS011;59118;54.322;18.576;2022-11-13T05:41:29;13.17;;;5.27;;
71320;SDS011;59118;54.322;18.576;2022-11-13T05:43:56;10.07;;;4.40;;
71320;SDS011;59118;54.322;18.576;2022-11-13T05:46:26;15.50;;;4.43;;
71320;SDS011;59118;54.322;18.576;2022-11-13T05:48:56;14.32;;;4.85;;
71320;SDS011;59118;54.322;18.576;2022-11-13T05:51:30;11.43;;;4.80;;
71320;SDS011;59118;54.322;18.576;2022-11-13T05:54:00;16.30;;;5.27;;
71320;SDS011;59118;54.322;18.576;2022-11-13T05:56:31;16.40;;;5.30;;
71320;SDS011;59118;54.322;18.576;2022-11-13T05:58:59;9.07;;;4.50;;
71320;SDS011;59118;54.322;18.576;2022-11-13T06:01:44;14.38;;;5.22;;
71320;SDS011;59118;54.322;18.576;2022-11-13T06:04:12;12.20;;;4.88;;
71320;SDS011;59118;54.322;18.576;2022-11-13T06:09:25;13.18;;;5.13;;
71320;SDS011;59118;54.322;18.576;2022-11-13T06:11:52;13.18;;;4.97;;
71320;SDS011;59118;54.322;18.576;2022-11-13T06:14:19;12.00;;;4.25;;
71320;SDS011;59118;54.322;18.576;2022-11-13T06:16:46;11.35;;;4.03;;
71320;SDS011;59118;54.322;18.576;2022-11-13T06:19:12;15.70;;;5.00;;
71320;SDS011;59118;54.322;18.576;2022-11-13T06:21:39;13.75;;;4.75;;
71320;SDS011;59118;54.322;18.576;2022-11-13T06:24:06;11.98;;;4.88;;
71320;SDS011;59118;54.322;18.576;2022-11-13T06:26:35;13.88;;;4.10;;
71320;SDS011;59118;54.322;18.576;2022-11-13T06:29:02;8.68;;;3.70;;
71320;SDS011;59118;54.322;18.576;2022-11-13T06:31:33;11.90;;;3.67;;
71320;SDS011;59118;54.322;18.576;2022-11-13T06:34:02;10.50;;;3.08;;
71320;SDS011;59118;54.322;18.576;2022-11-13T06:36:30;9.77;;;3.10;;
71320;SDS011;59118;54.322;18.576;2022-11-13T06:38:58;10.25;;;3.30;;
71320;SDS011;59118;54.322;18.576;2022-11-13T06:41:26;12.05;;;4.22;;
71320;SDS011;59118;54.322;18.576;2022-11-13T06:43:56;11.87;;;4.33;;
71320;SDS011;59118;54.322;18.576;2022-11-13T06:46:27;11.45;;;4.38;;
71320;SDS011;59118;54.322;18.576;2022-11-13T06:48:55;15.20;;;5.28;;
71320;SDS011;59118;54.322;18.576;2022-11-13T06:51:25;17.17;;;4.85;;
71320;SDS011;59118;54.322;18.576;2022-11-13T06:53:53;14.23;;;4.68;;
71320;SDS011;59118;54.322;18.576;2022-11-13T06:56:20;13.27;;;4.87;;
71320;SDS011;59118;54.322;18.576;2022-11-13T06:58:49;12.85;;;4.53;;
71320;SDS011;59118;54.322;18.576;2022-11-13T07:01:19;12.02;;;4.65;;
71320;SDS011;59118;54.322;18.576;2022-11-13T07:03:47;13.52;;;4.47;;
71320;SDS011;59118;54.322;18.576;2022-11-13T07:06:17;13.30;;;4.72;;
71320;SDS011;59118;54.322;18.576;2022-11-13T07:08:45;16.23;;;4.80;;
71320;SDS011;59118;54.322;18.576;2022-11-13T07:11:13;11.23;;;3.78;;
71320;SDS011;59118;54.322;18.576;2022-11-13T07:13:42;13.60;;;4.43;;
71320;SDS011;59118;54.322;18.576;2022-11-13T07:16:09;10.85;;;4.25;;
71320;SDS011;59118;54.322;18.576;2022-11-13T07:18:53;9.32;;;4.18;;
71320;SDS011;59118;54.322;18.576;2022-11-13T07:21:20;9.23;;;3.60;;
71320;SDS011;59118;54.322;18.576;2022-11-13T07:23:53;9.82;;;3.75;;
71320;SDS011;59118;54.322;18.576;2022-11-13T07:26:19;12.65;;;3.90;;
71320;SDS011;59118;54.322;18.576;2022-11-13T07:28:51;13.07;;;4.13;;
71320;SDS011;59118;54.322;18.576;2022-11-13T07:31:20;11.10;;;4.00;;
71320;SDS011;59118;54.322;18.576;2022-11-13T07:33:48;13.63;;;4.47;;
71320;SDS011;59118;54.322;18.576;2022-11-13T07:36:19;13.55;;;4.50;;
71320;SDS011;59118;54.322;18.576;2022-11-13T07:38:46;9.95;;;4.05;;
71320;SDS011;59118;54.322;18.576;2022-11-13T07:41:12;12.65;;;4.40;;
71320;SDS011;59118;54.322;18.576;2022-11-13T07:43:39;11.75;;;4.00;;
71320;SDS011;59118;54.322;18.576;2022-11-13T07:46:05;12.87;;;4.20;;
71320;SDS011;59118;54.322;18.576;2022-11-13T07:48:32;14.98;;;5.07;;
71320;SDS011;59118;54.322;18.576;2022-11-13T07:50:59;13.88;;;4.70;;
71320;SDS011;59118;54.322;18.576;2022-11-13T07:53:27;12.18;;;4.60;;
71320;SDS011;59118;54.322;18.576;2022-11-13T07:55:53;11.57;;;4.60;;
71320;SDS011;59118;54.322;18.576;2022-11-13T07:58:20;11.20;;;4.70;;
71320;SDS011;59118;54.322;18.576;2022-11-13T08:00:46;12.02;;;4.60;;
71320;SDS011;59118;54.322;18.576;2022-11-13T08:03:15;12.40;;;4.18;;
71320;SDS011;59118;54.322;18.576;2022-11-13T08:05:58;10.77;;;4.53;;
71320;SDS011;59118;54.322;18.576;2022-11-13T08:08:27;11.85;;;4.28;;
71320;SDS011;59118;54.322;18.576;2022-11-13T08:11:04;11.23;;;4.60;;
71320;SDS011;59118;54.322;18.576;2022-11-13T08:13:32;13.77;;;4.57;;
71320;SDS011;59118;54.322;18.576;2022-11-13T08:16:00;12.70;;;4.35;;
71320;SDS011;59118;54.322;18.576;2022-11-13T08:18:27;8.77;;;4.05;;
71320;SDS011;59118;54.322;18.576;2022-11-13T08:21:02;13.25;;;4.18;;
71320;SDS011;59118;54.322;18.576;2022-11-13T08:23:40;9.60;;;3.80;;
71320;SDS011;59118;54.322;18.576;2022-11-13T08:26:07;10.80;;;4.13;;
71320;SDS011;59118;54.322;18.576;2022-11-13T08:28:36;10.80;;;3.65;;
71320;SDS011;59118;54.322;18.576;2022-11-13T08:31:03;9.00;;;3.67;;
71320;SDS011;59118;54.322;18.576;2022-11-13T08:33:30;12.32;;;4.32;;
71320;SDS011;59118;54.322;18.576;2022-11-13T08:35:57;12.23;;;3.97;;
71320;SDS011;59118;54.322;18.576;2022-11-13T08:38:25;12.77;;;4.05;;
71320;SDS011;59118;54.322;18.576;2022-11-13T08:40:55;13.27;;;3.90;;
71320;SDS011;59118;54.322;18.576;2022-11-13T08:43:22;15.45;;;4.10;;
71320;SDS011;59118;54.322;18.576;2022-11-13T08:45:49;9.70;;;3.55;;
71320;SDS011;59118;54.322;18.576;2022-11-13T08:48:19;13.20;;;4.53;;
71320;SDS011;59118;54.322;18.576;2022-11-13T08:50:50;11.32;;;3.60;;
71320;SDS011;59118;54.322;18.576;2022-11-13T08:53:17;12.85;;;4.10;;
71320;SDS011;59118;54.322;18.576;2022-11-13T08:55:44;11.88;;;4.38;;
71320;SDS011;59118;54.322;18.576;2022-11-13T08:58:11;11.68;;;3.35;;
71320;SDS011;59118;54.322;18.576;2022-11-13T09:00:39;12.93;;;4.10;;
71320;SDS011;59118;54.322;18.576;2022-11-13T09:03:08;9.55;;;3.30;;
71320;SDS011;59118;54.322;18.576;2022-11-13T09:05:37;9.13;;;2.42;;
71320;SDS011;59118;54.322;18.576;2022-11-13T09:08:06;8.85;;;2.50;;
71320;SDS011;59118;54.322;18.576;2022-11-13T09:10:33;8.13;;;2.83;;
71320;SDS011;59118;54.322;18.576;2022-11-13T09:13:00;8.30;;;2.47;;
71320;SDS011;59118;54.322;18.576;2022-11-13T09:15:29;9.77;;;2.65;;
71320;SDS011;59118;54.322;18.576;2022-11-13T09:18:00;8.43;;;2.63;;
71320;SDS011;59118;54.322;18.576;2022-11-13T09:20:28;7.65;;;2.05;;
71320;SDS011;59118;54.322;18.576;2022-11-13T09:22:56;12.13;;;3.88;;
71320;SDS011;59118;54.322;18.576;2022-11-13T09:25:24;9.27;;;3.60;;
71320;SDS011;59118;54.322;18.576;2022-11-13T09:27:52;7.15;;;2.20;;
71320;SDS011;59118;54.322;18.576;2022-11-13T09:30:19;7.15;;;2.38;;
71320;SDS011;59118;54.322;18.576;2022-11-13T09:32:46;10.10;;;2.35;;
71320;SDS011;59118;54.322;18.576;2022-11-13T09:35:12;12.77;;;4.32;;
71320;SDS011;59118;54.322;18.576;2022-11-13T09:37:39;13.37;;;2.80;;
71320;SDS011;59118;54.322;18.576;2022-11-13T09:40:06;7.90;;;2.20;;
71320;SDS011;59118;54.322;18.576;2022-11-13T09:42:34;8.52;;;2.30;;
71320;SDS011;59118;54.322;18.576;2022-11-13T09:45:07;6.25;;;1.98;;
71320;SDS011;59118;54.322;18.576;2022-11-13T09:47:44;6.63;;;2.33;;
71320;SDS011;59118;54.322;18.576;2022-11-13T09:50:16;8.27;;;2.10;;
71320;SDS011;59118;54.322;18.576;2022-11-13T09:52:45;7.53;;;2.10;;
71320;SDS011;59118;54.322;18.576;2022-11-13T09:55:13;8.73;;;2.40;;
71320;SDS011;59118;54.322;18.576;2022-11-13T10:00:40;6.00;;;1.92;;
71320;SDS011;59118;54.322;18.576;2022-11-13T10:12:21;5.85;;;1.80;;
71320;SDS011;59118;54.322;18.576;2022-11-13T10:14:50;7.65;;;1.77;;
71320;SDS011;59118;54.322;18.576;2022-11-13T10:17:23;8.73;;;2.30;;
71320;SDS011;59118;54.322;18.576;2022-11-13T10:22:27;6.45;;;2.15;;
71320;SDS011;59118;54.322;18.576;2022-11-13T10:25:10;4.72;;;1.90;;
71320;SDS011;59118;54.322;18.576;2022-11-13T10:27:40;7.30;;;2.00;;
71320;SDS011;59118;54.322;18.576;2022-11-13T10:33:38;6.45;;;2.00;;
71320;SDS011;59118;54.322;18.576;2022-11-13T10:38:59;7.90;;;2.85;;
71320;SDS011;59118;54.322;18.576;2022-11-13T10:41:29;11.20;;;3.17;;
71320;SDS011;59118;54.322;18.576;2022-11-13T10:44:05;9.87;;;2.40;;
71320;SDS011;59118;54.322;18.576;2022-11-13T10:46:42;7.90;;;2.50;;
71320;SDS011;59118;54.322;18.576;2022-11-13T10:49:11;8.63;;;2.53;;
71320;SDS011;59118;54.322;18.576;2022-11-13T10:51:38;7.32;;;2.95;;
71320;SDS011;59118;54.322;18.576;2022-11-13T10:54:19;7.70;;;2.53;;
71320;SDS011;59118;54.322;18.576;2022-11-13T10:56:59;6.17;;;2.67;;
71320;SDS011;59118;54.322;18.576;2022-11-13T10:59:39;8.75;;;3.00;;
71320;SDS011;59118;54.322;18.576;2022-11-13T11:02:17;5.35;;;2.60;;
71320;SDS011;59118;54.322;18.576;2022-11-13T11:04:47;8.18;;;2.72;;
71320;SDS011;59118;54.322;18.576;2022-11-13T11:07:17;12.82;;;2.88;;
71320;SDS011;59118;54.322;18.576;2022-11-13T11:09:47;11.07;;;3.10;;
71320;SDS011;59118;54.322;18.576;2022-11-13T11:17:24;7.80;;;2.70;;
71320;SDS011;59118;54.322;18.576;2022-11-13T11:19:59;9.57;;;3.08;;
71320;SDS011;59118;54.322;18.576;2022-11-13T11:22:33;5.63;;;2.00;;
71320;SDS011;59118;54.322;18.576;2022-11-13T11:30:33;9.43;;;2.40;;
71320;SDS011;59118;54.322;18.576;2022-11-13T11:33:10;8.52;;;2.00;;
71320;SDS011;59118;54.322;18.576;2022-11-13T11:35:48;4.97;;;2.07;;
71320;SDS011;59118;54.322;18.576;2022-11-13T11:38:24;7.95;;;2.42;;
71320;SDS011;59118;54.322;18.576;2022-11-13T11:40:59;10.10;;;2.80;;
71320;SDS011;59118;54.322;18.576;2022-11-13T11:43:42;8.77;;;2.30;;
71320;SDS011;59118;54.322;18.576;2022-11-13T11:46:12;6.40;;;1.90;;
71320;SDS011;59118;54.322;18.576;2022-11-13T11:48:39;7.77;;;2.50;;
71320;SDS011;59118;54.322;18.576;2022-11-13T11:51:25;6.78;;;2.30;;
71320;SDS011;59118;54.322;18.576;2022-11-13T11:56:36;7.00;;;2.50;;
71320;SDS011;59118;54.322;18.576;2022-11-13T11:59:11;7.22;;;2.35;;
71320;SDS011;59118;54.322;18.576;2022-11-13T12:09:35;10.65;;;2.67;;
71320;SDS011;59118;54.322;18.576;2022-11-13T12:20:41;8.20;;;2.65;;
71320;SDS011;59118;54.322;18.576;2022-11-13T12:26:50;12.25;;;2.63;;
71320;SDS011;59118;54.322;18.576;2022-11-13T12:34:42;8.95;;;2.85;;
71320;SDS011;59118;54.322;18.576;2022-11-13T12:37:12;7.03;;;2.45;;
71320;SDS011;59118;54.322;18.576;2022-11-13T12:39:52;6.78;;;2.55;;
71320;SDS011;59118;54.322;18.576;2022-11-13T12:42:33;10.37;;;2.90;;
71320;SDS011;59118;54.322;18.576;2022-11-13T12:47:38;8.15;;;3.22;;
71320;SDS011;59118;54.322;18.576;2022-11-13T12:50:27;8.10;;;3.30;;
71320;SDS011;59118;54.322;18.576;2022-11-13T12:53:02;13.45;;;3.65;;
71320;SDS011;59118;54.322;18.576;2022-11-13T12:55:37;11.30;;;3.70;;
71320;SDS011;59118;54.322;18.576;2022-11-13T12:58:18;14.10;;;4.82;;
71320;SDS011;59118;54.322;18.576;2022-11-13T13:01:02;12.98;;;5.22;;
71320;SDS011;59118;54.322;18.576;2022-11-13T13:20:04;16.42;;;5.72;;
71320;SDS011;59118;54.322;18.576;2022-11-13T13:22:58;13.33;;;5.40;;
71320;SDS011;59118;54.322;18.576;2022-11-13T13:25:30;12.73;;;5.65;;
71320;SDS011;59118;54.322;18.576;2022-11-13T13:27:59;16.73;;;5.20;;
71320;SDS011;59118;54.322;18.576;2022-11-13T13:30:26;12.65;;;5.30;;
71320;SDS011;59118;54.322;18.576;2022-11-13T13:33:06;13.93;;;5.63;;
71320;SDS011;59118;54.322;18.576;2022-11-13T13:38:35;15.82;;;6.03;;
71320;SDS011;59118;54.322;18.576;2022-11-13T13:43:54;17.42;;;5.28;;
71320;SDS011;59118;54.322;18.576;2022-11-13T13:46:30;11.07;;;5.53;;
71320;SDS011;59118;54.322;18.576;2022-11-13T13:49:07;14.00;;;5.10;;
71320;SDS011;59118;54.322;18.576;2022-11-13T13:51:40;15.13;;;6.35;;
71320;SDS011;59118;54.322;18.576;2022-11-13T13:54:08;13.63;;;5.18;;
71320;SDS011;59118;54.322;18.576;2022-11-13T13:56:45;16.98;;;5.78;;
71320;SDS011;59118;54.322;18.576;2022-11-13T13:59:15;17.25;;;5.90;;
71320;SDS011;59118;54.322;18.576;2022-11-13T14:01:58;14.93;;;5.57;;
71320;SDS011;59118;54.322;18.576;2022-11-13T14:04:27;17.40;;;5.65;;
71320;SDS011;59118;54.322;18.576;2022-11-13T14:06:59;15.75;;;5.60;;
71320;SDS011;59118;54.322;18.576;2022-11-13T14:09:27;14.85;;;5.10;;
71320;SDS011;59118;54.322;18.576;2022-11-13T14:11:59;16.92;;;5.28;;
71320;SDS011;59118;54.322;18.576;2022-11-13T14:14:37;11.60;;;4.00;;
71320;SDS011;59118;54.322;18.576;2022-11-13T14:17:04;11.75;;;4.30;;
71320;SDS011;59118;54.322;18.576;2022-11-13T14:20:14;9.32;;;3.95;;
71320;SDS011;59118;54.322;18.576;2022-11-13T14:22:50;10.75;;;3.75;;
71320;SDS011;59118;54.322;18.576;2022-11-13T14:25:26;10.88;;;4.10;;
71320;SDS011;59118;54.322;18.576;2022-11-13T14:27:54;9.90;;;3.63;;
71320;SDS011;59118;54.322;18.576;2022-11-13T14:30:25;11.80;;;4.18;;
71320;SDS011;59118;54.322;18.576;2022-11-13T14:32:56;8.38;;;3.80;;
71320;SDS011;59118;54.322;18.576;2022-11-13T14:35:25;13.40;;;3.80;;
71320;SDS011;59118;54.322;18.576;2022-11-13T14:38:01;8.55;;;3.60;;
71320;SDS011;59118;54.322;18.576;2022-11-13T14:40:29;10.27;;;3.70;;
71320;SDS011;59118;54.322;18.576;2022-11-13T14:43:06;12.32;;;3.38;;
71320;SDS011;59118;54.322;18.576;2022-11-13T14:45:36;8.55;;;3.63;;
71320;SDS011;59118;54.322;18.576;2022-11-13T14:48:51;9.77;;;3.92;;
71320;SDS011;59118;54.322;18.576;2022-11-13T14:51:27;9.15;;;3.50;;
71320;SDS011;59118;54.322;18.576;2022-11-13T14:54:01;8.53;;;3.63;;
71320;SDS011;59118;54.322;18.576;2022-11-13T14:57:08;7.22;;;3.17;;
71320;SDS011;59118;54.322;18.576;2022-11-13T14:59:35;8.27;;;3.00;;
71320;SDS011;59118;54.322;18.576;2022-11-13T15:02:03;9.20;;;3.72;;
71320;SDS011;59118;54.322;18.576;2022-11-13T15:04:30;8.45;;;3.78;;
71320;SDS011;59118;54.322;18.576;2022-11-13T15:07:02;10.47;;;3.70;;
71320;SDS011;59118;54.322;18.576;2022-11-13T15:09:29;10.45;;;4.13;;
71320;SDS011;59118;54.322;18.576;2022-11-13T15:11:56;10.23;;;3.38;;
71320;SDS011;59118;54.322;18.576;2022-11-13T15:14:23;13.15;;;4.30;;
71320;SDS011;59118;54.322;18.576;2022-11-13T15:16:52;9.27;;;4.40;;
71320;SDS011;59118;54.322;18.576;2022-11-13T15:19:27;12.87;;;5.20;;
71320;SDS011;59118;54.322;18.576;2022-11-13T15:21:59;10.63;;;4.57;;
71320;SDS011;59118;54.322;18.576;2022-11-13T15:24:46;11.40;;;4.80;;
71320;SDS011;59118;54.322;18.576;2022-11-13T15:27:15;9.52;;;4.53;;
71320;SDS011;59118;54.322;18.576;2022-11-13T15:29:42;11.68;;;4.70;;
71320;SDS011;59118;54.322;18.576;2022-11-13T15:32:13;14.40;;;4.70;;
71320;SDS011;59118;54.322;18.576;2022-11-13T15:34:40;11.23;;;5.18;;
71320;SDS011;59118;54.322;18.576;2022-11-13T15:37:14;11.30;;;5.07;;
71320;SDS011;59118;54.322;18.576;2022-11-13T15:39:44;9.80;;;4.70;;
71320;SDS011;59118;54.322;18.576;2022-11-13T15:42:11;10.65;;;4.95;;
71320;SDS011;59118;54.322;18.576;2022-11-13T15:44:40;14.77;;;5.67;;
71320;SDS011;59118;54.322;18.576;2022-11-13T15:50:03;10.30;;;5.28;;
71320;SDS011;59118;54.322;18.576;2022-11-13T15:52:43;12.50;;;5.40;;
71320;SDS011;59118;54.322;18.576;2022-11-13T15:55:25;11.52;;;5.53;;
71320;SDS011;59118;54.322;18.576;2022-11-13T15:57:53;17.93;;;6.90;;
71320;SDS011;59118;54.322;18.576;2022-11-13T16:00:23;17.30;;;7.15;;
71320;SDS011;59118;54.322;18.576;2022-11-13T16:02:53;14.77;;;7.20;;
71320;SDS011;59118;54.322;18.576;2022-11-13T16:05:25;17.27;;;7.45;;
71320;SDS011;59118;54.322;18.576;2022-11-13T16:07:59;13.20;;;7.10;;
71320;SDS011;59118;54.322;18.576;2022-11-13T16:10:29;13.10;;;6.67;;
71320;SDS011;59118;54.322;18.576;2022-11-13T16:12:56;19.60;;;7.55;;
71320;SDS011;59118;54.322;18.576;2022-11-13T16:15:25;13.07;;;5.72;;
71320;SDS011;59118;54.322;18.576;2022-11-13T16:17:54;10.68;;;4.60;;